»·PEaware :: N973SE L88-KSBP

N973SE :: L88-KSBP

FLIGHT INFORMATION

Flight Status: Arrived
Operator: Privately registered:
United States
More flights under this callsign
Pilot: Stig E. (4778)
Aircraft: PIPER PA-28R-201 ARROW
(P28R)
More flights by this aircraft type
Origin: L88 New Cuyama
United States
Destination: KSBP San Luis Co Regl
United States
More flights between these airports :: More routes between these airports
Route:
File this flight plan on PilotEdge
Remarks:
Altitude:
(Current/Filed)
6,500ft
Speed:
(Current/Filed)
120kts
Departed: 14-Feb-18 02:09 AM
Arrived: 14-Feb-18 02:36 AM
Distance/Time
Traveled:
50nm/0:27
Distance/Time
To Go:
Arrived

Flight Plot

Page will automatically refresh every two minutes.


Map Options




Map Legend


Flown Route
Filed Route
Departure Airport
Arrival Airport
Navaid (VOR, NDB)
Fix

Horizontal Profiles

Position Reports

Time Latitude Longitude Heading Altitude Ground
Speed
14-Feb-18 01:56 34.942684 -119.690573 290 2154ft 0kts
14-Feb-18 01:57 34.942684 -119.690573 290 2154ft 0kts
14-Feb-18 01:58 34.942684 -119.690573 290 2154ft 0kts
14-Feb-18 01:59 34.942684 -119.690573 290 2154ft 0kts
14-Feb-18 02:00 34.942684 -119.690573 290 2154ft 0kts
14-Feb-18 02:01 34.942684 -119.690573 290 2154ft 0kts
14-Feb-18 02:02 34.942684 -119.690573 290 2154ft 0kts
14-Feb-18 02:03 34.942684 -119.690573 290 2154ft 0kts
14-Feb-18 02:04 34.942684 -119.690573 290 2154ft 0kts
14-Feb-18 02:05 34.942684 -119.690573 290 2154ft 0kts
14-Feb-18 02:06 34.942684 -119.690573 290 2154ft 0kts
14-Feb-18 02:07 34.942684 -119.690573 290 2154ft 0kts
14-Feb-18 02:08 34.942684 -119.690573 290 2154ft 0kts
14-Feb-18 02:09 34.942684 -119.690573 290 2154ft 0kts
14-Feb-18 02:10 34.942684 -119.690573 290 2154ft 0kts
14-Feb-18 02:11 34.941934 -119.690417 116 2156ft 10kts
14-Feb-18 02:12 34.940631 -119.687229 116 2167ft 13kts
14-Feb-18 02:13 34.938804 -119.682755 116 2187ft 13kts
14-Feb-18 02:14 34.937382 -119.678997 336 2201ft 13kts
14-Feb-18 02:15 34.937635 -119.679922 296 2199ft 0kts
14-Feb-18 02:16 34.943457 -119.697375 290 2679ft 89kts
14-Feb-18 02:17 34.953236 -119.731850 290 3344ft 113kts
14-Feb-18 02:18 34.963401 -119.768067 290 4092ft 112kts
14-Feb-18 02:19 34.971574 -119.798400 290 4680ft 115kts
14-Feb-18 02:20 34.980795 -119.836629 288 5275ft 119kts
14-Feb-18 02:21 34.989770 -119.875776 288 5869ft 120kts
14-Feb-18 02:22 34.998792 -119.915315 288 6464ft 121kts
14-Feb-18 02:23 35.009649 -119.957470 290 6571ft 135kts
14-Feb-18 02:24 35.020892 -120.000652 290 6613ft 131kts
14-Feb-18 02:25 35.032357 -120.043959 290 6617ft 135kts
14-Feb-18 02:26 35.044491 -120.087886 290 6617ft 137kts
14-Feb-18 02:27 35.057493 -120.132488 290 6559ft 139kts
14-Feb-18 02:28 35.071039 -120.176518 290 6560ft 139kts
14-Feb-18 02:29 35.085723 -120.222241 290 6195ft 152kts
14-Feb-18 02:30 35.094240 -120.268400 262 5593ft 126kts
14-Feb-18 02:31 35.091589 -120.307988 262 4998ft 113kts
14-Feb-18 02:32 35.088654 -120.346140 262 4403ft 112kts
14-Feb-18 02:33 35.091792 -120.382598 304 3806ft 111kts
14-Feb-18 02:34 35.108357 -120.413731 304 3213ft 109kts
14-Feb-18 02:35 35.124715 -120.444477 304 2614ft 107kts
14-Feb-18 02:36 35.141149 -120.474340 306 2015ft 105kts
14-Feb-18 02:37 35.157376 -120.501574 306 1863ft 96kts
14-Feb-18 02:38 35.173103 -120.527800 305 1863ft 95kts
14-Feb-18 02:39 35.188306 -120.554797 304 1736ft 98kts
14-Feb-18 02:40 35.203401 -120.581394 306 1326ft 90kts
14-Feb-18 02:41 35.217262 -120.605698 303 923ft 81kts
14-Feb-18 02:42 35.229704 -120.627469 304 356ft 71kts
14-Feb-18 02:43 35.238109 -120.642162 306 182ft 34kts
14-Feb-18 02:44 35.242020 -120.649022 339 153ft 15kts
14-Feb-18 02:45 35.242720 -120.648378 116 155ft 7kts
14-Feb-18 02:46 35.240737 -120.644860 125 170ft 16kts
14-Feb-18 02:47 35.237780 -120.639709 121 190ft 17kts
14-Feb-18 02:48 35.238486 -120.638501 270 195ft 0kts
14-Feb-18 02:49 35.238486 -120.638501 270 195ft 0kts

Navigation Log

Ident Type
1. L88 Airport
2. KSBP Airport